Abra Grande, Argentina
Current Conditions -  °F | °C
As of 5:00 PM on Sunday 23 Nov 2014 (Local Time) from SANT Reporting Station
Few Clouds Few Clouds  
Wind Chill: 93°   Ceiling: Unl
Heat Index: 93°   Visibility: 6mi
Dew Point: 61°   Wind: 28mph
Humidity: 34%   Direction: 20°NNE
Pressure: 29.65"   Gusts: NA
Location:  27.33°S, 64.33°W
Report Text: SANT 232000Z 02024KT 9999 FEW040 FEW10034/16 Q1004
Loading
Personal Weather Stations






























Interactive Weather Map New forecast layout! Learn more

10-Day Weather Forecast

Advertisements
Track Severe Weather on mobile